PWSweather.com
Personal Weather Stations
Station Observations
LAKENACI1
Oak Shores Lake Nacimiento, Bradley, CA 93426

Oak Shores Lake NacimientoBradley, CA 93426

Lat: 35.749704, Lon: -120.988075

Elevation: 811

Station Type: Rain wise MK-III

https://www.rainwise.net/weather/JMConstructionOS

Latest ConditionsUpdated 11:49:00 PM PDT Saturday, Jul 22, 2017
Currently Today's Max Today's Min Today's Average
Temperature 69.9°F21.1°C 99.5°F37.5°C 54.5°F12.5°C 76.2°F24.6°C
Dew Point 50.9°F10.5°C 54.1°F12.3°C 37.1°F2.8°C 48.2°F9.0°C
Winds 0.5 mph WSW0.8 kmh WSW 4.5 mph WNW7.2 kmh WNW - 1.2 mph 1.9 kmh
Wind Gusts 0.9 mph1.4 kmh 7.9 mph12.7 kmh - -
Humidity 51% 87% 13% 45%
Pressure 29.01 in982.4 mb 29.09 in985.1 mb 28.95 in980.4 mb -
Hour Temp Dew Point Humidity Winds Wind Gusts Pressure Precip Precip Rate Daily Precip Total
11:49 PM 69.9°F21.1°C 50.9°F10.5°C 51% 0.5 mph WSW0.8 kmh WSW 0.9 mph1.4 kmh 29.01 in982.4 mb 0.00 in0.0 mm 0.00 in0.0 mm 0.00 in0.0 mm
11:44 PM 70.0°F21.1°C 50.5°F10.3°C 50% 1.3 mph SSE2.1 kmh SSE 2.6 mph4.2 kmh 29.01 in982.4 mb 0.00 in0.0 mm 0.00 in0.0 mm 0.00 in0.0 mm
11:40 PM 70.2°F21.2°C 50.7°F10.4°C 50% 2.2 mph ESE3.5 kmh ESE 3.6 mph5.8 kmh 29.01 in982.4 mb 0.00 in0.0 mm 0.00 in0.0 mm 0.00 in0.0 mm
11:34 PM 70.2°F21.2°C 51.7°F10.9°C 52% 4.2 mph ESE6.8 kmh ESE 5.9 mph9.5 kmh 29.01 in982.4 mb 0.00 in0.0 mm 0.00 in0.0 mm 0.00 in0.0 mm
11:30 PM 70.4°F21.3°C 51.9°F11.1°C 52% 3.0 mph ESE4.8 kmh ESE 4.9 mph7.9 kmh 29.01 in982.4 mb 0.00 in0.0 mm 0.00 in0.0 mm 0.00 in0.0 mm
11:24 PM 70.7°F21.5°C 51.7°F10.9°C 51% 1.7 mph E2.7 kmh E 3.3 mph5.3 kmh 29.01 in982.4 mb 0.00 in0.0 mm 0.00 in0.0 mm 0.00 in0.0 mm
11:20 PM 71.1°F21.7°C 52.0°F11.1°C 51% 2.3 mph SE3.7 kmh SE 4.1 mph6.6 kmh 29.01 in982.4 mb 0.00 in0.0 mm 0.00 in0.0 mm 0.00 in0.0 mm
11:14 PM 71.7°F22.1°C 51.5°F10.8°C 49% 1.8 mph SSE2.9 kmh SSE 3.9 mph6.3 kmh 29.00 in982.1 mb 0.00 in0.0 mm 0.00 in0.0 mm 0.00 in0.0 mm
11:09 PM 72.3°F22.4°C 51.5°F10.8°C 48% 1.0 mph SE1.6 kmh SE 1.9 mph3.1 kmh 29.01 in982.4 mb 0.00 in0.0 mm 0.00 in0.0 mm 0.00 in0.0 mm
11:04 PM 72.9°F22.7°C 50.3°F10.2°C 45% 1.0 mph ESE1.6 kmh ESE 1.8 mph2.9 kmh 29.00 in982.1 mb 0.00 in0.0 mm 0.00 in0.0 mm 0.00 in0.0 mm
11:00 PM 73.2°F22.9°C 50.0°F10.0°C 44% 1.4 mph ESE2.3 kmh ESE 2.2 mph3.5 kmh 29.00 in982.1 mb 0.00 in0.0 mm 0.00 in0.0 mm 0.00 in0.0 mm
10:54 PM 73.7°F23.2°C 50.4°F10.2°C 44% 2.9 mph ESE4.7 kmh ESE 3.9 mph6.3 kmh 29.01 in982.4 mb 0.00 in0.0 mm 0.00 in0.0 mm 0.00 in0.0 mm
10:49 PM 74.2°F23.4°C 49.6°F9.8°C 42% Calm Calm -- 29.00 in982.1 mb 0.00 in0.0 mm 0.00 in0.0 mm 0.00 in0.0 mm
10:45 PM 74.5°F23.6°C 50.5°F10.3°C 43% 0.4 mph ENE0.6 kmh ENE 1.1 mph1.8 kmh 29.00 in982.1 mb 0.00 in0.0 mm 0.00 in0.0 mm 0.00 in0.0 mm
10:39 PM 74.8°F23.8°C 50.8°F10.4°C 43% 2.7 mph ENE4.3 kmh ENE 3.4 mph5.5 kmh 29.00 in982.1 mb 0.00 in0.0 mm 0.00 in0.0 mm 0.00 in0.0 mm
10:34 PM 75.0°F23.9°C 50.3°F10.2°C 42% 2.3 mph ENE3.7 kmh ENE 2.9 mph4.7 kmh 29.00 in982.1 mb 0.00 in0.0 mm 0.00 in0.0 mm 0.00 in0.0 mm
10:30 PM 75.0°F23.9°C 51.0°F10.6°C 43% 2.3 mph E3.7 kmh E 3.5 mph5.6 kmh 29.00 in982.1 mb 0.00 in0.0 mm 0.00 in0.0 mm 0.00 in0.0 mm
10:24 PM 75.2°F24.0°C 49.9°F9.9°C 41% 1.6 mph ENE2.6 kmh ENE 2.9 mph4.7 kmh 29.00 in982.1 mb 0.00 in0.0 mm 0.00 in0.0 mm 0.00 in0.0 mm
10:20 PM 75.5°F24.2°C 50.1°F10.1°C 41% 1.3 mph SSE2.1 kmh SSE 2.5 mph4.0 kmh 29.00 in982.1 mb 0.00 in0.0 mm 0.00 in0.0 mm 0.00 in0.0 mm
10:15 PM 75.7°F24.3°C 50.3°F10.2°C 41% 0.6 mph SSW1.0 kmh SSW 2.0 mph3.2 kmh 29.00 in982.1 mb 0.00 in0.0 mm 0.00 in0.0 mm 0.00 in0.0 mm
10:09 PM 75.9°F24.4°C 49.8°F9.9°C 40% Calm Calm 0.3 mph0.5 kmh 29.00 in982.1 mb 0.00 in0.0 mm 0.00 in0.0 mm 0.00 in0.0 mm
10:04 PM 76.2°F24.6°C 49.4°F9.7°C 39% 0.1 mph NNE0.2 kmh NNE 0.6 mph1.0 kmh 29.00 in982.1 mb 0.00 in0.0 mm 0.00 in0.0 mm 0.00 in0.0 mm
09:59 PM 76.7°F24.8°C 49.2°F9.6°C 38% Calm Calm -- 29.00 in982.1 mb 0.00 in0.0 mm 0.00 in0.0 mm 0.00 in0.0 mm
09:54 PM 77.0°F25.0°C 48.0°F8.9°C 36% 0.2 mph SSE0.3 kmh SSE 0.9 mph1.4 kmh 29.00 in982.1 mb 0.00 in0.0 mm 0.00 in0.0 mm 0.00 in0.0 mm
09:50 PM 77.1°F25.1°C 47.3°F8.5°C 35% 0.2 mph WNW0.3 kmh WNW 1.3 mph2.1 kmh 28.99 in981.7 mb 0.00 in0.0 mm 0.00 in0.0 mm 0.00 in0.0 mm
09:44 PM 77.2°F25.1°C 46.6°F8.1°C 34% 0.8 mph ESE1.3 kmh ESE 3.4 mph5.5 kmh 28.99 in981.7 mb 0.00 in0.0 mm 0.00 in0.0 mm 0.00 in0.0 mm
09:39 PM 77.5°F25.3°C 45.3°F7.4°C 32% Calm Calm 0.3 mph0.5 kmh 28.99 in981.7 mb 0.00 in0.0 mm 0.00 in0.0 mm 0.00 in0.0 mm
09:34 PM 77.6°F25.3°C 44.6°F7.0°C 31% 0.3 mph SSE0.5 kmh SSE 0.9 mph1.4 kmh 28.98 in981.4 mb 0.00 in0.0 mm 0.00 in0.0 mm 0.00 in0.0 mm
09:30 PM 77.5°F25.3°C 43.6°F6.4°C 30% 0.4 mph WSW0.6 kmh WSW 1.2 mph1.9 kmh 28.99 in981.7 mb 0.00 in0.0 mm 0.00 in0.0 mm 0.00 in0.0 mm
09:24 PM 77.9°F25.5°C 41.2°F5.1°C 27% Calm Calm -- 28.98 in981.4 mb 0.00 in0.0 mm 0.00 in0.0 mm 0.00 in0.0 mm
09:20 PM 78.6°F25.9°C 41.8°F5.4°C 27% 0.1 mph SE0.2 kmh SE 0.3 mph0.5 kmh 28.98 in981.4 mb 0.00 in0.0 mm 0.00 in0.0 mm 0.00 in0.0 mm
09:14 PM 79.8°F26.6°C 42.8°F6.0°C 27% Calm Calm -- 28.98 in981.4 mb 0.00 in0.0 mm 0.00 in0.0 mm 0.00 in0.0 mm
09:10 PM 80.6°F27.0°C 41.5°F5.3°C 25% Calm Calm -- 28.98 in981.4 mb 0.00 in0.0 mm 0.00 in0.0 mm 0.00 in0.0 mm
09:04 PM 81.6°F27.6°C 40.2°F4.6°C 23% Calm Calm -- 28.97 in981.0 mb 0.00 in0.0 mm 0.00 in0.0 mm 0.00 in0.0 mm
08:59 PM 82.2°F27.9°C 37.1°F2.8°C 20% 0.6 mph NW1.0 kmh NW 1.3 mph2.1 kmh 28.97 in981.0 mb 0.00 in0.0 mm 0.00 in0.0 mm 0.00 in0.0 mm
08:54 PM 82.8°F28.2°C 38.9°F3.8°C 21% 1.2 mph NNW1.9 kmh NNW 1.6 mph2.6 kmh 28.97 in981.0 mb 0.00 in0.0 mm 0.00 in0.0 mm 0.00 in0.0 mm
08:49 PM 83.0°F28.3°C 37.8°F3.2°C 20% 1.0 mph NNW1.6 kmh NNW 1.8 mph2.9 kmh 28.97 in981.0 mb 0.00 in0.0 mm 0.00 in0.0 mm 0.00 in0.0 mm
08:44 PM 83.2°F28.4°C 39.2°F4.0°C 21% 1.3 mph NNW2.1 kmh NNW 2.5 mph4.0 kmh 28.97 in981.0 mb 0.00 in0.0 mm 0.00 in0.0 mm 0.00 in0.0 mm
08:40 PM 83.3°F28.5°C 38.0°F3.3°C 20% 0.9 mph NNE1.4 kmh NNE 1.9 mph3.1 kmh 28.97 in981.0 mb 0.00 in0.0 mm 0.00 in0.0 mm 0.00 in0.0 mm
08:34 PM 83.5°F28.6°C 38.2°F3.4°C 20% 0.6 mph NNW1.0 kmh NNW 1.7 mph2.7 kmh 28.97 in981.0 mb 0.00 in0.0 mm 0.00 in0.0 mm 0.00 in0.0 mm
08:30 PM 83.7°F28.7°C 38.3°F3.5°C 20% 0.8 mph N1.3 kmh N 2.5 mph4.0 kmh 28.96 in980.7 mb 0.00 in0.0 mm 0.00 in0.0 mm 0.00 in0.0 mm
08:24 PM 84.1°F28.9°C 38.7°F3.7°C 20% 1.5 mph NE2.4 kmh NE 2.4 mph3.9 kmh 28.96 in980.7 mb 0.00 in0.0 mm 0.00 in0.0 mm 0.00 in0.0 mm
08:20 PM 84.4°F29.1°C 38.9°F3.8°C 20% 0.6 mph NE1.0 kmh NE 1.8 mph2.9 kmh 28.96 in980.7 mb 0.00 in0.0 mm 0.00 in0.0 mm 0.00 in0.0 mm
08:15 PM 84.7°F29.3°C 39.2°F4.0°C 20% 1.5 mph NE2.4 kmh NE 2.8 mph4.5 kmh 28.96 in980.7 mb 0.00 in0.0 mm 0.00 in0.0 mm 0.00 in0.0 mm
08:10 PM 85.1°F29.5°C 39.5°F4.2°C 20% 1.2 mph NE1.9 kmh NE 2.7 mph4.3 kmh 28.96 in980.7 mb 0.00 in0.0 mm 0.00 in0.0 mm 0.00 in0.0 mm
08:05 PM 85.3°F29.6°C 39.7°F4.3°C 20% 0.9 mph NNW1.4 kmh NNW 2.5 mph4.0 kmh 28.96 in980.7 mb 0.00 in0.0 mm 0.00 in0.0 mm 0.00 in0.0 mm
08:00 PM 85.6°F29.8°C 39.9°F4.4°C 20% 0.8 mph ENE1.3 kmh ENE 2.1 mph3.4 kmh 28.96 in980.7 mb 0.00 in0.0 mm 0.00 in0.0 mm 0.00 in0.0 mm
07:55 PM 85.8°F29.9°C 41.3°F5.2°C 21% 1.5 mph ENE2.4 kmh ENE 2.9 mph4.7 kmh 28.96 in980.7 mb 0.00 in0.0 mm 0.00 in0.0 mm 0.00 in0.0 mm
07:50 PM 86.2°F30.1°C 41.7°F5.4°C 21% 1.6 mph ENE2.6 kmh ENE 3.0 mph4.8 kmh 28.95 in980.4 mb 0.00 in0.0 mm 0.00 in0.0 mm 0.00 in0.0 mm
07:44 PM 86.8°F30.4°C 42.2°F5.7°C 21% 1.8 mph NE2.9 kmh NE 3.3 mph5.3 kmh 28.96 in980.7 mb 0.00 in0.0 mm 0.00 in0.0 mm 0.00 in0.0 mm
07:40 PM 87.2°F30.7°C 42.5°F5.8°C 21% 0.7 mph NNE1.1 kmh NNE 2.2 mph3.5 kmh 28.95 in980.4 mb 0.00 in0.0 mm 0.00 in0.0 mm 0.00 in0.0 mm
07:35 PM 87.9°F31.1°C 41.8°F5.4°C 20% 1.1 mph ENE1.8 kmh ENE 2.6 mph4.2 kmh 28.95 in980.4 mb 0.00 in0.0 mm 0.00 in0.0 mm 0.00 in0.0 mm
07:30 PM 88.4°F31.3°C 43.5°F6.4°C 21% 1.0 mph NNW1.6 kmh NNW 2.5 mph4.0 kmh 28.95 in980.4 mb 0.00 in0.0 mm 0.00 in0.0 mm 0.00 in0.0 mm
07:25 PM 89.0°F31.7°C 44.0°F6.7°C 21% 3.0 mph NNW4.8 kmh NNW 5.5 mph8.9 kmh 28.95 in980.4 mb 0.00 in0.0 mm 0.00 in0.0 mm 0.00 in0.0 mm
07:20 PM 89.6°F32.0°C 45.7°F7.6°C 22% 2.7 mph NNE4.3 kmh NNE 5.1 mph8.2 kmh 28.95 in980.4 mb 0.00 in0.0 mm 0.00 in0.0 mm 0.00 in0.0 mm
07:14 PM 90.2°F32.3°C 44.9°F7.2°C 21% 1.8 mph NW2.9 kmh NW 3.9 mph6.3 kmh 28.95 in980.4 mb 0.00 in0.0 mm 0.00 in0.0 mm 0.00 in0.0 mm
07:10 PM 90.6°F32.6°C 46.5°F8.1°C 22% 0.6 mph NNW1.0 kmh NNW 1.4 mph2.3 kmh 28.95 in980.4 mb 0.00 in0.0 mm 0.00 in0.0 mm 0.00 in0.0 mm
07:04 PM 90.7°F32.6°C 46.6°F8.1°C 22% 1.0 mph WNW1.6 kmh WNW 3.3 mph5.3 kmh 28.95 in980.4 mb 0.00 in0.0 mm 0.00 in0.0 mm 0.00 in0.0 mm
07:00 PM 90.9°F32.7°C 46.8°F8.2°C 22% 1.1 mph NNW1.8 kmh NNW 2.8 mph4.5 kmh 28.95 in980.4 mb 0.00 in0.0 mm 0.00 in0.0 mm 0.00 in0.0 mm
06:55 PM 90.9°F32.7°C 46.8°F8.2°C 22% 0.6 mph W1.0 kmh W 1.9 mph3.1 kmh 28.95 in980.4 mb 0.00 in0.0 mm 0.00 in0.0 mm 0.00 in0.0 mm
06:50 PM 90.9°F32.7°C 46.8°F8.2°C 22% 0.9 mph NE1.4 kmh NE 3.1 mph5.0 kmh 28.95 in980.4 mb 0.00 in0.0 mm 0.00 in0.0 mm 0.00 in0.0 mm
06:44 PM 91.6°F33.1°C 46.1°F7.8°C 21% 1.3 mph N2.1 kmh N 2.5 mph4.0 kmh 28.95 in980.4 mb 0.00 in0.0 mm 0.00 in0.0 mm 0.00 in0.0 mm
06:40 PM 92.1°F33.4°C 43.9°F6.6°C 19% 1.8 mph E2.9 kmh E 3.6 mph5.8 kmh 28.95 in980.4 mb 0.00 in0.0 mm 0.00 in0.0 mm 0.00 in0.0 mm
06:34 PM 92.2°F33.4°C 44.0°F6.7°C 19% 0.8 mph NNW1.3 kmh NNW 3.4 mph5.5 kmh 28.95 in980.4 mb 0.00 in0.0 mm 0.00 in0.0 mm 0.00 in0.0 mm
06:30 PM 92.4°F33.6°C 46.8°F8.2°C 21% 2.0 mph S3.2 kmh S 4.0 mph6.4 kmh 28.95 in980.4 mb 0.00 in0.0 mm 0.00 in0.0 mm 0.00 in0.0 mm
06:24 PM 92.7°F33.7°C 47.0°F8.3°C 21% 1.6 mph NE2.6 kmh NE 2.6 mph4.2 kmh 28.95 in980.4 mb 0.00 in0.0 mm 0.00 in0.0 mm 0.00 in0.0 mm
06:19 PM 92.9°F33.8°C 47.2°F8.4°C 21% 0.6 mph SE1.0 kmh SE 2.2 mph3.5 kmh 28.95 in980.4 mb 0.00 in0.0 mm 0.00 in0.0 mm 0.00 in0.0 mm
06:14 PM 92.8°F33.8°C 45.8°F7.7°C 20% 0.4 mph SSE0.6 kmh SSE 1.7 mph2.7 kmh 28.95 in980.4 mb 0.00 in0.0 mm 0.00 in0.0 mm 0.00 in0.0 mm
06:10 PM 92.7°F33.7°C 47.0°F8.3°C 21% 1.6 mph NNE2.6 kmh NNE 3.6 mph5.8 kmh 28.95 in980.4 mb 0.00 in0.0 mm 0.00 in0.0 mm 0.00 in0.0 mm
06:04 PM 92.7°F33.7°C 47.0°F8.3°C 21% 2.4 mph N3.9 kmh N 4.4 mph7.1 kmh 28.95 in980.4 mb 0.00 in0.0 mm 0.00 in0.0 mm 0.00 in0.0 mm
06:00 PM 92.7°F33.7°C 47.0°F8.3°C 21% 2.2 mph NNW3.5 kmh NNW 3.6 mph5.8 kmh 28.95 in980.4 mb 0.00 in0.0 mm 0.00 in0.0 mm 0.00 in0.0 mm
05:54 PM 92.7°F33.7°C 47.0°F8.3°C 21% 2.1 mph NNW3.4 kmh NNW 4.5 mph7.2 kmh 28.95 in980.4 mb 0.00 in0.0 mm 0.00 in0.0 mm 0.00 in0.0 mm
05:50 PM 93.0°F33.9°C 44.6°F7.0°C 19% 2.9 mph NW4.7 kmh NW 5.8 mph9.3 kmh 28.95 in980.4 mb 0.00 in0.0 mm 0.00 in0.0 mm 0.00 in0.0 mm
05:44 PM 93.7°F34.3°C 46.5°F8.1°C 20% 1.9 mph E3.1 kmh E 5.0 mph8.0 kmh 28.95 in980.4 mb 0.00 in0.0 mm 0.00 in0.0 mm 0.00 in0.0 mm
05:39 PM 93.9°F34.4°C 45.3°F7.4°C 19% 2.8 mph NW4.5 kmh NW 5.8 mph9.3 kmh 28.95 in980.4 mb 0.00 in0.0 mm 0.00 in0.0 mm 0.00 in0.0 mm
05:35 PM 94.0°F34.4°C 46.8°F8.2°C 20% 2.2 mph NNW3.5 kmh NNW 6.0 mph9.7 kmh 28.95 in980.4 mb 0.00 in0.0 mm 0.00 in0.0 mm 0.00 in0.0 mm
05:30 PM 94.2°F34.6°C 45.6°F7.6°C 19% 1.6 mph WNW2.6 kmh WNW 4.0 mph6.4 kmh 28.95 in980.4 mb 0.00 in0.0 mm 0.00 in0.0 mm 0.00 in0.0 mm
05:25 PM 94.2°F34.6°C 45.6°F7.6°C 19% 2.2 mph S3.5 kmh S 6.1 mph9.8 kmh 28.95 in980.4 mb 0.00 in0.0 mm 0.00 in0.0 mm 0.00 in0.0 mm
05:20 PM 94.0°F34.4°C 46.8°F8.2°C 20% 3.0 mph S4.8 kmh S 6.6 mph10.6 kmh 28.95 in980.4 mb 0.00 in0.0 mm 0.00 in0.0 mm 0.00 in0.0 mm
05:14 PM 93.9°F34.4°C 46.7°F8.2°C 20% 2.4 mph SSW3.9 kmh SSW 4.9 mph7.9 kmh 28.95 in980.4 mb 0.00 in0.0 mm 0.00 in0.0 mm 0.00 in0.0 mm
05:09 PM 94.0°F34.4°C 46.8°F8.2°C 20% 2.3 mph N3.7 kmh N 4.1 mph6.6 kmh 28.96 in980.7 mb 0.00 in0.0 mm 0.00 in0.0 mm 0.00 in0.0 mm
05:04 PM 94.1°F34.5°C 46.9°F8.3°C 20% 2.4 mph E3.9 kmh E 5.0 mph8.0 kmh 28.95 in980.4 mb 0.00 in0.0 mm 0.00 in0.0 mm 0.00 in0.0 mm
05:00 PM 94.4°F34.7°C 47.1°F8.4°C 20% 3.4 mph NW5.5 kmh NW 7.0 mph11.3 kmh 28.95 in980.4 mb 0.00 in0.0 mm 0.00 in0.0 mm 0.00 in0.0 mm
04:54 PM 94.7°F34.8°C 47.3°F8.5°C 20% 3.3 mph NNW5.3 kmh NNW 4.9 mph7.9 kmh 28.96 in980.7 mb 0.00 in0.0 mm 0.00 in0.0 mm 0.00 in0.0 mm
04:50 PM 94.5°F34.7°C 47.2°F8.4°C 20% 1.8 mph SSW2.9 kmh SSW 4.5 mph7.2 kmh 28.96 in980.7 mb 0.00 in0.0 mm 0.00 in0.0 mm 0.00 in0.0 mm
04:44 PM 94.6°F34.8°C 45.9°F7.7°C 19% 2.5 mph NNE4.0 kmh NNE 4.8 mph7.7 kmh 28.96 in980.7 mb 0.00 in0.0 mm 0.00 in0.0 mm 0.00 in0.0 mm
04:39 PM 95.2°F35.1°C 46.4°F8.0°C 19% 3.8 mph WNW6.1 kmh WNW 7.1 mph11.4 kmh 28.96 in980.7 mb 0.00 in0.0 mm 0.00 in0.0 mm 0.00 in0.0 mm
04:34 PM 95.6°F35.3°C 45.3°F7.4°C 18% 3.4 mph WSW5.5 kmh WSW 6.3 mph10.1 kmh 28.96 in980.7 mb 0.00 in0.0 mm 0.00 in0.0 mm 0.00 in0.0 mm
04:30 PM 95.7°F35.4°C 46.8°F8.2°C 19% 3.3 mph WNW5.3 kmh WNW 7.9 mph12.7 kmh 28.96 in980.7 mb 0.00 in0.0 mm 0.00 in0.0 mm 0.00 in0.0 mm
04:24 PM 96.6°F35.9°C 46.1°F7.8°C 18% 4.5 mph WNW7.2 kmh WNW 7.5 mph12.1 kmh 28.96 in980.7 mb 0.00 in0.0 mm 0.00 in0.0 mm 0.00 in0.0 mm
04:20 PM 97.5°F36.4°C 45.3°F7.4°C 17% 4.5 mph WNW7.2 kmh WNW 7.9 mph12.7 kmh 28.96 in980.7 mb 0.00 in0.0 mm 0.00 in0.0 mm 0.00 in0.0 mm
04:15 PM 98.3°F36.8°C 47.5°F8.6°C 18% 3.9 mph WSW6.3 kmh WSW 6.9 mph11.1 kmh 28.97 in981.0 mb 0.00 in0.0 mm 0.00 in0.0 mm 0.00 in0.0 mm
04:09 PM 98.5°F36.9°C 46.1°F7.8°C 17% 2.6 mph W4.2 kmh W 4.9 mph7.9 kmh 28.97 in981.0 mb 0.00 in0.0 mm 0.00 in0.0 mm 0.00 in0.0 mm
04:04 PM 98.4°F36.9°C 47.5°F8.6°C 18% 2.3 mph WSW3.7 kmh WSW 5.0 mph8.0 kmh 28.97 in981.0 mb 0.00 in0.0 mm 0.00 in0.0 mm 0.00 in0.0 mm
03:59 PM 98.5°F36.9°C 47.6°F8.7°C 18% 0.5 mph SE0.8 kmh SE 1.8 mph2.9 kmh 28.97 in981.0 mb 0.00 in0.0 mm 0.00 in0.0 mm 0.00 in0.0 mm
03:55 PM 98.4°F36.9°C 46.0°F7.8°C 17% 3.5 mph SW5.6 kmh SW 6.6 mph10.6 kmh 28.97 in981.0 mb 0.00 in0.0 mm 0.00 in0.0 mm 0.00 in0.0 mm
03:49 PM 98.2°F36.8°C 47.4°F8.6°C 18% 2.1 mph WNW3.4 kmh WNW 3.6 mph5.8 kmh 28.97 in981.0 mb 0.00 in0.0 mm 0.00 in0.0 mm 0.00 in0.0 mm
03:44 PM 98.6°F37.0°C 46.2°F7.9°C 17% 3.3 mph SSE5.3 kmh SSE 6.8 mph10.9 kmh 28.97 in981.0 mb 0.00 in0.0 mm 0.00 in0.0 mm 0.00 in0.0 mm
03:40 PM 99.0°F37.2°C 48.0°F8.9°C 18% 2.4 mph N3.9 kmh N 4.4 mph7.1 kmh 28.97 in981.0 mb 0.00 in0.0 mm 0.00 in0.0 mm 0.00 in0.0 mm
03:35 PM 98.7°F37.1°C 46.3°F7.9°C 17% 1.6 mph WSW2.6 kmh WSW 3.6 mph5.8 kmh 28.97 in981.0 mb 0.00 in0.0 mm 0.00 in0.0 mm 0.00 in0.0 mm
03:30 PM 98.1°F36.7°C 45.8°F7.7°C 17% 2.8 mph SW4.5 kmh SW 5.9 mph9.5 kmh 28.97 in981.0 mb 0.00 in0.0 mm 0.00 in0.0 mm 0.00 in0.0 mm
03:24 PM 97.9°F36.6°C 42.4°F5.8°C 15% 4.1 mph WSW6.6 kmh WSW 6.2 mph10.0 kmh 28.98 in981.4 mb 0.00 in0.0 mm 0.00 in0.0 mm 0.00 in0.0 mm
03:20 PM 98.6°F37.0°C 41.1°F5.1°C 14% 4.3 mph WSW6.9 kmh WSW 5.7 mph9.2 kmh 28.98 in981.4 mb 0.00 in0.0 mm 0.00 in0.0 mm 0.00 in0.0 mm
03:15 PM 99.4°F37.4°C 43.5°F6.4°C 15% 3.1 mph WSW5.0 kmh WSW 4.8 mph7.7 kmh 28.98 in981.4 mb 0.00 in0.0 mm 0.00 in0.0 mm 0.00 in0.0 mm
03:10 PM 99.0°F37.2°C 43.2°F6.2°C 15% 2.6 mph SW4.2 kmh SW 4.6 mph7.4 kmh 28.98 in981.4 mb 0.00 in0.0 mm 0.00 in0.0 mm 0.00 in0.0 mm
03:05 PM 98.8°F37.1°C 43.1°F6.2°C 15% 2.5 mph WSW4.0 kmh WSW 3.8 mph6.1 kmh 28.99 in981.7 mb 0.00 in0.0 mm 0.00 in0.0 mm 0.00 in0.0 mm
02:59 PM 99.0°F37.2°C 43.2°F6.2°C 15% 2.9 mph W4.7 kmh W 4.5 mph7.2 kmh 28.99 in981.7 mb 0.00 in0.0 mm 0.00 in0.0 mm 0.00 in0.0 mm
02:55 PM 99.2°F37.3°C 43.4°F6.3°C 15% 2.3 mph WSW3.7 kmh WSW 3.3 mph5.3 kmh 28.99 in981.7 mb 0.00 in0.0 mm 0.00 in0.0 mm 0.00 in0.0 mm
02:50 PM 99.2°F37.3°C 41.6°F5.3°C 14% 3.0 mph WSW4.8 kmh WSW 4.1 mph6.6 kmh 28.99 in981.7 mb 0.00 in0.0 mm 0.00 in0.0 mm 0.00 in0.0 mm
02:45 PM 99.5°F37.5°C 39.9°F4.4°C 13% 2.1 mph SW3.4 kmh SW 3.2 mph5.1 kmh 28.99 in981.7 mb 0.00 in0.0 mm 0.00 in0.0 mm 0.00 in0.0 mm
02:40 PM 99.2°F37.3°C 43.4°F6.3°C 15% 1.5 mph WSW2.4 kmh WSW 2.6 mph4.2 kmh 28.99 in981.7 mb 0.00 in0.0 mm 0.00 in0.0 mm 0.00 in0.0 mm
02:35 PM 99.0°F37.2°C 41.4°F5.2°C 14% 2.2 mph WSW3.5 kmh WSW 3.4 mph5.5 kmh 28.99 in981.7 mb 0.00 in0.0 mm 0.00 in0.0 mm 0.00 in0.0 mm
02:30 PM 98.9°F37.2°C 41.3°F5.2°C 14% 1.5 mph SW2.4 kmh SW 2.7 mph4.3 kmh 29.00 in982.1 mb 0.00 in0.0 mm 0.00 in0.0 mm 0.00 in0.0 mm
02:25 PM 98.1°F36.7°C 42.5°F5.8°C 15% 0.6 mph SSW1.0 kmh SSW 1.7 mph2.7 kmh 29.00 in982.1 mb 0.00 in0.0 mm 0.00 in0.0 mm 0.00 in0.0 mm
02:20 PM 97.9°F36.6°C 42.4°F5.8°C 15% 2.4 mph SSE3.9 kmh SSE 3.4 mph5.5 kmh 29.00 in982.1 mb 0.00 in0.0 mm 0.00 in0.0 mm 0.00 in0.0 mm
02:15 PM 98.2°F36.8°C 44.3°F6.8°C 16% 1.2 mph SW1.9 kmh SW 2.4 mph3.9 kmh 29.00 in982.1 mb 0.00 in0.0 mm 0.00 in0.0 mm 0.00 in0.0 mm
02:10 PM 98.4°F36.9°C 44.4°F6.9°C 16% 1.7 mph SSE2.7 kmh SSE 2.5 mph4.0 kmh 29.00 in982.1 mb 0.00 in0.0 mm 0.00 in0.0 mm 0.00 in0.0 mm
02:04 PM 98.1°F36.7°C 44.2°F6.8°C 16% 1.6 mph SW2.6 kmh SW 2.5 mph4.0 kmh 29.01 in982.4 mb 0.00 in0.0 mm 0.00 in0.0 mm 0.00 in0.0 mm
02:00 PM 97.7°F36.5°C 43.9°F6.6°C 16% 1.2 mph SSE1.9 kmh SSE 2.3 mph3.7 kmh 29.01 in982.4 mb 0.00 in0.0 mm 0.00 in0.0 mm 0.00 in0.0 mm
01:54 PM 97.3°F36.3°C 43.6°F6.4°C 16% 1.3 mph SW2.1 kmh SW 2.1 mph3.4 kmh 29.01 in982.4 mb 0.00 in0.0 mm 0.00 in0.0 mm 0.00 in0.0 mm
01:50 PM 96.9°F36.1°C 44.8°F7.1°C 17% 1.1 mph SW1.8 kmh SW 2.1 mph3.4 kmh 29.01 in982.4 mb 0.00 in0.0 mm 0.00 in0.0 mm 0.00 in0.0 mm
01:45 PM 96.1°F35.6°C 44.2°F6.8°C 17% 1.7 mph SSW2.7 kmh SSW 2.6 mph4.2 kmh 29.01 in982.4 mb 0.00 in0.0 mm 0.00 in0.0 mm 0.00 in0.0 mm
01:40 PM 95.2°F35.1°C 45.0°F7.2°C 18% 1.6 mph SW2.6 kmh SW 2.8 mph4.5 kmh 29.02 in982.7 mb 0.00 in0.0 mm 0.00 in0.0 mm 0.00 in0.0 mm
01:34 PM 95.9°F35.5°C 47.0°F8.3°C 19% 2.3 mph WSW3.7 kmh WSW 3.2 mph5.1 kmh 29.02 in982.7 mb 0.00 in0.0 mm 0.00 in0.0 mm 0.00 in0.0 mm
01:30 PM 96.6°F35.9°C 47.5°F8.6°C 19% 1.4 mph WSW2.3 kmh WSW 2.5 mph4.0 kmh 29.02 in982.7 mb 0.00 in0.0 mm 0.00 in0.0 mm 0.00 in0.0 mm
01:24 PM 96.3°F35.7°C 48.7°F9.3°C 20% 1.4 mph SW2.3 kmh SW 2.4 mph3.9 kmh 29.02 in982.7 mb 0.00 in0.0 mm 0.00 in0.0 mm 0.00 in0.0 mm
01:20 PM 95.8°F35.4°C 48.2°F9.0°C 20% 1.1 mph SSW1.8 kmh SSW 1.9 mph3.1 kmh 29.02 in982.7 mb 0.00 in0.0 mm 0.00 in0.0 mm 0.00 in0.0 mm
01:15 PM 95.3°F35.2°C 49.1°F9.5°C 21% 1.3 mph SSE2.1 kmh SSE 1.9 mph3.1 kmh 29.02 in982.7 mb 0.00 in0.0 mm 0.00 in0.0 mm 0.00 in0.0 mm
01:10 PM 95.0°F35.0°C 47.6°F8.7°C 20% 1.1 mph SSE1.8 kmh SSE 1.9 mph3.1 kmh 29.02 in982.7 mb 0.00 in0.0 mm 0.00 in0.0 mm 0.00 in0.0 mm
01:04 PM 94.9°F34.9°C 48.8°F9.3°C 21% 1.6 mph SSE2.6 kmh SSE 2.4 mph3.9 kmh 29.03 in983.1 mb 0.00 in0.0 mm 0.00 in0.0 mm 0.00 in0.0 mm
01:00 PM 94.7°F34.8°C 47.3°F8.5°C 20% 1.2 mph S1.9 kmh S 1.9 mph3.1 kmh 29.03 in983.1 mb 0.00 in0.0 mm 0.00 in0.0 mm 0.00 in0.0 mm
12:55 PM 94.7°F34.8°C 48.6°F9.2°C 21% 1.3 mph SSW2.1 kmh SSW 2.2 mph3.5 kmh 29.03 in983.1 mb 0.00 in0.0 mm 0.00 in0.0 mm 0.00 in0.0 mm
12:49 PM 94.2°F34.6°C 49.5°F9.7°C 22% 1.2 mph WSW1.9 kmh WSW 2.7 mph4.3 kmh 29.03 in983.1 mb 0.00 in0.0 mm 0.00 in0.0 mm 0.00 in0.0 mm
12:45 PM 94.0°F34.4°C 48.1°F8.9°C 21% 1.0 mph SSW1.6 kmh SSW 1.8 mph2.9 kmh 29.03 in983.1 mb 0.00 in0.0 mm 0.00 in0.0 mm 0.00 in0.0 mm
12:40 PM 93.8°F34.3°C 49.2°F9.6°C 22% 1.2 mph SSW1.9 kmh SSW 1.9 mph3.1 kmh 29.03 in983.1 mb 0.00 in0.0 mm 0.00 in0.0 mm 0.00 in0.0 mm
12:35 PM 92.9°F33.8°C 49.6°F9.8°C 23% 1.1 mph SSW1.8 kmh SSW 1.7 mph2.7 kmh 29.04 in983.4 mb 0.00 in0.0 mm 0.00 in0.0 mm 0.00 in0.0 mm
12:29 PM 91.1°F32.8°C 45.7°F7.6°C 21% 0.6 mph SSW1.0 kmh SSW 1.6 mph2.6 kmh 29.04 in983.4 mb 0.00 in0.0 mm 0.00 in0.0 mm 0.00 in0.0 mm
12:24 PM 90.4°F32.4°C 43.8°F6.6°C 20% 1.5 mph WSW2.4 kmh WSW 2.3 mph3.7 kmh 29.04 in983.4 mb 0.00 in0.0 mm 0.00 in0.0 mm 0.00 in0.0 mm
12:20 PM 90.1°F32.3°C 43.6°F6.4°C 20% 1.8 mph WSW2.9 kmh WSW 2.8 mph4.5 kmh 29.04 in983.4 mb 0.00 in0.0 mm 0.00 in0.0 mm 0.00 in0.0 mm
12:15 PM 89.4°F31.9°C 45.5°F7.5°C 22% 1.3 mph WSW2.1 kmh WSW 2.4 mph3.9 kmh 29.04 in983.4 mb 0.00 in0.0 mm 0.00 in0.0 mm 0.00 in0.0 mm
12:10 PM 88.2°F31.2°C 46.8°F8.2°C 24% 1.1 mph WSW1.8 kmh WSW 2.6 mph4.2 kmh 29.04 in983.4 mb 0.00 in0.0 mm 0.00 in0.0 mm 0.00 in0.0 mm
12:05 PM 87.2°F30.7°C 47.1°F8.4°C 25% 1.7 mph SW2.7 kmh SW 2.5 mph4.0 kmh 29.04 in983.4 mb 0.00 in0.0 mm 0.00 in0.0 mm 0.00 in0.0 mm
12:00 PM 87.0°F30.6°C 48.9°F9.4°C 27% 1.9 mph SSW3.1 kmh SSW 3.1 mph5.0 kmh 29.04 in983.4 mb 0.00 in0.0 mm 0.00 in0.0 mm 0.00 in0.0 mm
11:54 AM 86.7°F30.4°C 48.7°F9.3°C 27% 1.6 mph SW2.6 kmh SW 3.0 mph4.8 kmh 29.04 in983.4 mb 0.00 in0.0 mm 0.00 in0.0 mm 0.00 in0.0 mm
11:50 AM 87.0°F30.6°C 48.9°F9.4°C 27% 1.9 mph WSW3.1 kmh WSW 3.6 mph5.8 kmh 29.04 in983.4 mb 0.00 in0.0 mm 0.00 in0.0 mm 0.00 in0.0 mm
11:44 AM 86.3°F30.2°C 50.3°F10.2°C 29% 1.6 mph WSW2.6 kmh WSW 2.7 mph4.3 kmh 29.05 in983.7 mb 0.00 in0.0 mm 0.00 in0.0 mm 0.00 in0.0 mm
11:40 AM 85.1°F29.5°C 50.1°F10.1°C 30% 1.0 mph WSW1.6 kmh WSW 2.0 mph3.2 kmh 29.05 in983.7 mb 0.00 in0.0 mm 0.00 in0.0 mm 0.00 in0.0 mm
11:34 AM 84.6°F29.2°C 51.5°F10.8°C 32% 2.1 mph WSW3.4 kmh WSW 2.7 mph4.3 kmh 29.05 in983.7 mb 0.00 in0.0 mm 0.00 in0.0 mm 0.00 in0.0 mm
11:30 AM 83.8°F28.8°C 51.6°F10.9°C 33% 1.8 mph WSW2.9 kmh WSW 2.7 mph4.3 kmh 29.05 in983.7 mb 0.00 in0.0 mm 0.00 in0.0 mm 0.00 in0.0 mm
11:24 AM 82.1°F27.8°C 49.3°F9.6°C 32% 1.6 mph WSW2.6 kmh WSW 2.5 mph4.0 kmh 29.06 in984.1 mb 0.00 in0.0 mm 0.00 in0.0 mm 0.00 in0.0 mm
11:20 AM 81.9°F27.7°C 49.9°F9.9°C 33% 2.2 mph SW3.5 kmh SW 3.1 mph5.0 kmh 29.06 in984.1 mb 0.00 in0.0 mm 0.00 in0.0 mm 0.00 in0.0 mm
11:15 AM 81.5°F27.5°C 50.4°F10.2°C 34% 1.9 mph WSW3.1 kmh WSW 2.7 mph4.3 kmh 29.06 in984.1 mb 0.00 in0.0 mm 0.00 in0.0 mm 0.00 in0.0 mm
11:10 AM 81.4°F27.4°C 50.3°F10.2°C 34% 1.8 mph WSW2.9 kmh WSW 2.6 mph4.2 kmh 29.06 in984.1 mb 0.00 in0.0 mm 0.00 in0.0 mm 0.00 in0.0 mm
11:04 AM 82.0°F27.8°C 50.8°F10.4°C 34% 1.6 mph WSW2.6 kmh WSW 2.4 mph3.9 kmh 29.06 in984.1 mb 0.00 in0.0 mm 0.00 in0.0 mm 0.00 in0.0 mm
11:00 AM 81.8°F27.7°C 50.7°F10.4°C 34% 1.2 mph SW1.9 kmh SW 2.4 mph3.9 kmh 29.06 in984.1 mb 0.00 in0.0 mm 0.00 in0.0 mm 0.00 in0.0 mm
10:54 AM 81.2°F27.3°C 50.1°F10.1°C 34% 0.9 mph SSW1.4 kmh SSW 1.9 mph3.1 kmh 29.06 in984.1 mb 0.00 in0.0 mm 0.00 in0.0 mm 0.00 in0.0 mm
10:50 AM 81.3°F27.4°C 50.2°F10.1°C 34% 1.2 mph SW1.9 kmh SW 2.2 mph3.5 kmh 29.07 in984.4 mb 0.00 in0.0 mm 0.00 in0.0 mm 0.00 in0.0 mm
10:45 AM 80.8°F27.1°C 49.8°F9.9°C 34% 0.5 mph S0.8 kmh S 1.8 mph2.9 kmh 29.07 in984.4 mb 0.00 in0.0 mm 0.00 in0.0 mm 0.00 in0.0 mm
10:40 AM 79.6°F26.4°C 49.5°F9.7°C 35% 0.9 mph S1.4 kmh S 2.1 mph3.4 kmh 29.07 in984.4 mb 0.00 in0.0 mm 0.00 in0.0 mm 0.00 in0.0 mm
10:34 AM 79.2°F26.2°C 49.9°F9.9°C 36% 1.4 mph SSW2.3 kmh SSW 2.3 mph3.7 kmh 29.07 in984.4 mb 0.00 in0.0 mm 0.00 in0.0 mm 0.00 in0.0 mm
10:30 AM 78.6°F25.9°C 50.8°F10.4°C 38% 1.1 mph S1.8 kmh S 2.2 mph3.5 kmh 29.07 in984.4 mb 0.00 in0.0 mm 0.00 in0.0 mm 0.00 in0.0 mm
10:25 AM 78.1°F25.6°C 50.4°F10.2°C 38% 1.0 mph SW1.6 kmh SW 2.2 mph3.5 kmh 29.07 in984.4 mb 0.00 in0.0 mm 0.00 in0.0 mm 0.00 in0.0 mm
10:20 AM 78.5°F25.8°C 51.5°F10.8°C 39% 1.4 mph SW2.3 kmh SW 2.2 mph3.5 kmh 29.07 in984.4 mb 0.00 in0.0 mm 0.00 in0.0 mm 0.00 in0.0 mm
10:15 AM 78.3°F25.7°C 51.3°F10.7°C 39% 1.0 mph SSW1.6 kmh SSW 2.0 mph3.2 kmh 29.07 in984.4 mb 0.00 in0.0 mm 0.00 in0.0 mm 0.00 in0.0 mm
10:10 AM 77.7°F25.4°C 51.4°F10.8°C 40% 1.1 mph S1.8 kmh S 2.1 mph3.4 kmh 29.08 in984.8 mb 0.00 in0.0 mm 0.00 in0.0 mm 0.00 in0.0 mm
10:05 AM 76.4°F24.7°C 52.2°F11.2°C 43% 0.5 mph SSE0.8 kmh SSE 1.7 mph2.7 kmh 29.08 in984.8 mb 0.00 in0.0 mm 0.00 in0.0 mm 0.00 in0.0 mm
10:00 AM 75.6°F24.2°C 51.5°F10.8°C 43% 0.9 mph SE1.4 kmh SE 1.9 mph3.1 kmh 29.07 in984.4 mb 0.00 in0.0 mm 0.00 in0.0 mm 0.00 in0.0 mm
09:54 AM 75.1°F23.9°C 51.7°F10.9°C 44% 0.8 mph SSW1.3 kmh SSW 2.1 mph3.4 kmh 29.07 in984.4 mb 0.00 in0.0 mm 0.00 in0.0 mm 0.00 in0.0 mm
09:49 AM 74.2°F23.4°C 52.7°F11.5°C 47% 0.9 mph ESE1.4 kmh ESE 2.3 mph3.7 kmh 29.08 in984.8 mb 0.00 in0.0 mm 0.00 in0.0 mm 0.00 in0.0 mm
09:44 AM 73.0°F22.8°C 52.1°F11.2°C 48% 0.8 mph SSW1.3 kmh SSW 1.8 mph2.9 kmh 29.08 in984.8 mb 0.00 in0.0 mm 0.00 in0.0 mm 0.00 in0.0 mm
09:39 AM 72.0°F22.2°C 51.2°F10.7°C 48% 0.9 mph SW1.4 kmh SW 1.9 mph3.1 kmh 29.08 in984.8 mb 0.00 in0.0 mm 0.00 in0.0 mm 0.00 in0.0 mm
09:34 AM 72.4°F22.4°C 51.0°F10.6°C 47% 1.2 mph SW1.9 kmh SW 2.4 mph3.9 kmh 29.08 in984.8 mb 0.00 in0.0 mm 0.00 in0.0 mm 0.00 in0.0 mm
09:29 AM 72.8°F22.7°C 51.4°F10.8°C 47% 1.7 mph SW2.7 kmh SW 2.3 mph3.7 kmh 29.08 in984.8 mb 0.00 in0.0 mm 0.00 in0.0 mm 0.00 in0.0 mm
09:24 AM 71.8°F22.1°C 52.1°F11.2°C 50% 0.8 mph S1.3 kmh S 1.9 mph3.1 kmh 29.08 in984.8 mb 0.00 in0.0 mm 0.00 in0.0 mm 0.00 in0.0 mm
09:20 AM 71.0°F21.7°C 51.9°F11.1°C 51% 0.8 mph SE1.3 kmh SE 2.1 mph3.4 kmh 29.08 in984.8 mb 0.00 in0.0 mm 0.00 in0.0 mm 0.00 in0.0 mm
09:14 AM 70.2°F21.2°C 51.7°F10.9°C 52% 1.0 mph SW1.6 kmh SW 2.2 mph3.5 kmh 29.08 in984.8 mb 0.00 in0.0 mm 0.00 in0.0 mm 0.00 in0.0 mm
09:09 AM 69.6°F20.9°C 51.7°F10.9°C 53% 0.6 mph SSW1.0 kmh SSW 1.5 mph2.4 kmh 29.08 in984.8 mb 0.00 in0.0 mm 0.00 in0.0 mm 0.00 in0.0 mm
09:04 AM 69.2°F20.7°C 51.3°F10.7°C 53% 1.0 mph S1.6 kmh S 2.3 mph3.7 kmh 29.09 in985.1 mb 0.00 in0.0 mm 0.00 in0.0 mm 0.00 in0.0 mm
09:00 AM 69.2°F20.7°C 51.8°F11.0°C 54% 2.1 mph SE3.4 kmh SE 2.6 mph4.2 kmh 29.09 in985.1 mb 0.00 in0.0 mm 0.00 in0.0 mm 0.00 in0.0 mm
08:54 AM 68.9°F20.5°C 53.0°F11.7°C 57% 0.4 mph SSE0.6 kmh SSE 1.3 mph2.1 kmh 29.09 in985.1 mb 0.00 in0.0 mm 0.00 in0.0 mm 0.00 in0.0 mm
08:49 AM 67.6°F19.8°C 53.7°F12.1°C 61% 0.7 mph ESE1.1 kmh ESE 1.7 mph2.7 kmh 29.09 in985.1 mb 0.00 in0.0 mm 0.00 in0.0 mm 0.00 in0.0 mm
08:44 AM 66.3°F19.1°C 53.8°F12.1°C 64% 0.5 mph SSE0.8 kmh SSE 1.8 mph2.9 kmh 29.09 in985.1 mb 0.00 in0.0 mm 0.00 in0.0 mm 0.00 in0.0 mm
08:40 AM 65.2°F18.4°C 53.1°F11.7°C 65% 0.7 mph SSE1.1 kmh SSE 1.5 mph2.4 kmh 29.09 in985.1 mb 0.00 in0.0 mm 0.00 in0.0 mm 0.00 in0.0 mm
08:34 AM 64.1°F17.8°C 52.9°F11.6°C 67% 0.9 mph SSE1.4 kmh SSE 2.1 mph3.4 kmh 29.09 in985.1 mb 0.00 in0.0 mm 0.00 in0.0 mm 0.00 in0.0 mm
08:30 AM 64.0°F17.8°C 53.2°F11.8°C 68% 1.7 mph S2.7 kmh S 2.6 mph4.2 kmh 29.09 in985.1 mb 0.00 in0.0 mm 0.00 in0.0 mm 0.00 in0.0 mm
08:25 AM 64.1°F17.8°C 53.7°F12.1°C 69% 0.9 mph SW1.4 kmh SW 1.8 mph2.9 kmh 29.09 in985.1 mb 0.00 in0.0 mm 0.00 in0.0 mm 0.00 in0.0 mm
08:20 AM 64.0°F17.8°C 54.0°F12.2°C 70% 0.8 mph SSE1.3 kmh SSE 1.7 mph2.7 kmh 29.09 in985.1 mb 0.00 in0.0 mm 0.00 in0.0 mm 0.00 in0.0 mm
08:15 AM 63.7°F17.6°C 54.1°F12.3°C 71% 1.2 mph SSW1.9 kmh SSW 2.4 mph3.9 kmh 29.09 in985.1 mb 0.00 in0.0 mm 0.00 in0.0 mm 0.00 in0.0 mm
08:10 AM 62.8°F17.1°C 54.0°F12.2°C 73% 0.3 mph SSE0.5 kmh SSE 0.9 mph1.4 kmh 29.09 in985.1 mb 0.00 in0.0 mm 0.00 in0.0 mm 0.00 in0.0 mm
08:04 AM 61.7°F16.5°C 53.7°F12.1°C 75% 0.6 mph SSE1.0 kmh SSE 0.9 mph1.4 kmh 29.09 in985.1 mb 0.00 in0.0 mm 0.00 in0.0 mm 0.00 in0.0 mm
08:00 AM 61.1°F16.2°C 53.8°F12.1°C 77% 0.6 mph SSE1.0 kmh SSE 1.1 mph1.8 kmh 29.09 in985.1 mb 0.00 in0.0 mm 0.00 in0.0 mm 0.00 in0.0 mm
07:55 AM 60.2°F15.7°C 53.3°F11.8°C 78% 0.1 mph SSE0.2 kmh SSE 0.7 mph1.1 kmh 29.09 in985.1 mb 0.00 in0.0 mm 0.00 in0.0 mm 0.00 in0.0 mm
07:49 AM 59.1°F15.1°C 52.9°F11.6°C 80% 0.1 mph S0.2 kmh S 0.3 mph0.5 kmh 29.09 in985.1 mb 0.00 in0.0 mm 0.00 in0.0 mm 0.00 in0.0 mm
07:45 AM 58.5°F14.7°C 52.7°F11.5°C 81% Calm Calm 0.2 mph0.3 kmh 29.09 in985.1 mb 0.00 in0.0 mm 0.00 in0.0 mm 0.00 in0.0 mm
07:40 AM 58.1°F14.5°C 52.6°F11.4°C 82% 0.7 mph SSE1.1 kmh SSE 2.0 mph3.2 kmh 29.09 in985.1 mb 0.00 in0.0 mm 0.00 in0.0 mm 0.00 in0.0 mm
07:35 AM 57.6°F14.2°C 52.1°F11.2°C 82% 0.5 mph ESE0.8 kmh ESE 1.2 mph1.9 kmh 29.08 in984.8 mb 0.00 in0.0 mm 0.00 in0.0 mm 0.00 in0.0 mm
07:30 AM 57.1°F13.9°C 52.3°F11.3°C 84% 1.1 mph ESE1.8 kmh ESE 1.8 mph2.9 kmh 29.08 in984.8 mb 0.00 in0.0 mm 0.00 in0.0 mm 0.00 in0.0 mm
07:24 AM 56.4°F13.6°C 51.6°F10.9°C 84% 0.9 mph ESE1.4 kmh ESE 1.7 mph2.7 kmh 29.08 in984.8 mb 0.00 in0.0 mm 0.00 in0.0 mm 0.00 in0.0 mm
07:19 AM 55.9°F13.3°C 50.8°F10.4°C 83% 1.1 mph ESE1.8 kmh ESE 1.6 mph2.6 kmh 29.08 in984.8 mb 0.00 in0.0 mm 0.00 in0.0 mm 0.00 in0.0 mm
07:14 AM 55.5°F13.1°C 50.7°F10.4°C 84% 0.7 mph ESE1.1 kmh ESE 1.4 mph2.3 kmh 29.08 in984.8 mb 0.00 in0.0 mm 0.00 in0.0 mm 0.00 in0.0 mm
07:10 AM 55.2°F12.9°C 50.1°F10.1°C 83% 0.5 mph ESE0.8 kmh ESE 1.3 mph2.1 kmh 29.08 in984.8 mb 0.00 in0.0 mm 0.00 in0.0 mm 0.00 in0.0 mm
07:05 AM 55.2°F12.9°C 50.1°F10.1°C 83% 1.1 mph ESE1.8 kmh ESE 1.6 mph2.6 kmh 29.07 in984.4 mb 0.00 in0.0 mm 0.00 in0.0 mm 0.00 in0.0 mm
07:00 AM 54.8°F12.7°C 49.4°F9.7°C 82% 0.7 mph ESE1.1 kmh ESE 1.4 mph2.3 kmh 29.07 in984.4 mb 0.00 in0.0 mm 0.00 in0.0 mm 0.00 in0.0 mm
06:55 AM 54.5°F12.5°C 49.4°F9.7°C 83% 0.2 mph ESE0.3 kmh ESE 1.2 mph1.9 kmh 29.07 in984.4 mb 0.00 in0.0 mm 0.00 in0.0 mm 0.00 in0.0 mm
06:49 AM 54.5°F12.5°C 49.8°F9.9°C 84% 0.6 mph ESE1.0 kmh ESE 1.5 mph2.4 kmh 29.07 in984.4 mb 0.00 in0.0 mm 0.00 in0.0 mm 0.00 in0.0 mm
06:45 AM 54.6°F12.6°C 50.2°F10.1°C 85% 1.1 mph ESE1.8 kmh ESE 1.6 mph2.6 kmh 29.07 in984.4 mb 0.00 in0.0 mm 0.00 in0.0 mm 0.00 in0.0 mm
06:40 AM 54.7°F12.6°C 50.6°F10.3°C 86% 0.7 mph ESE1.1 kmh ESE 1.3 mph2.1 kmh 29.07 in984.4 mb 0.00 in0.0 mm 0.00 in0.0 mm 0.00 in0.0 mm
06:35 AM 54.7°F12.6°C 50.9°F10.5°C 87% 0.2 mph ESE0.3 kmh ESE 0.5 mph0.8 kmh 29.07 in984.4 mb 0.00 in0.0 mm 0.00 in0.0 mm 0.00 in0.0 mm
06:30 AM 54.7°F12.6°C 50.9°F10.5°C 87% Calm Calm -- 29.07 in984.4 mb 0.00 in0.0 mm 0.00 in0.0 mm 0.00 in0.0 mm
06:25 AM 54.7°F12.6°C 50.6°F10.3°C 86% Calm Calm -- 29.07 in984.4 mb 0.00 in0.0 mm 0.00 in0.0 mm 0.00 in0.0 mm
06:19 AM 54.7°F12.6°C 50.3°F10.2°C 85% Calm Calm 0.3 mph0.5 kmh 29.07 in984.4 mb 0.00 in0.0 mm 0.00 in0.0 mm 0.00 in0.0 mm
06:15 AM 54.7°F12.6°C 50.3°F10.2°C 85% Calm Calm -- 29.07 in984.4 mb 0.00 in0.0 mm 0.00 in0.0 mm 0.00 in0.0 mm
06:10 AM 54.8°F12.7°C 49.7°F9.8°C 83% Calm Calm -- 29.07 in984.4 mb 0.00 in0.0 mm 0.00 in0.0 mm 0.00 in0.0 mm
06:04 AM 55.1°F12.8°C 49.7°F9.8°C 82% Calm Calm -- 29.07 in984.4 mb 0.00 in0.0 mm 0.00 in0.0 mm 0.00 in0.0 mm
06:00 AM 55.0°F12.8°C 49.6°F9.8°C 82% 0.5 mph ESE0.8 kmh ESE 1.3 mph2.1 kmh 29.07 in984.4 mb 0.00 in0.0 mm 0.00 in0.0 mm 0.00 in0.0 mm
05:54 AM 54.8°F12.7°C 50.1°F10.1°C 84% 0.7 mph ESE1.1 kmh ESE 1.8 mph2.9 kmh 29.07 in984.4 mb 0.00 in0.0 mm 0.00 in0.0 mm 0.00 in0.0 mm
05:50 AM 54.8°F12.7°C 50.1°F10.1°C 84% 0.3 mph ESE0.5 kmh ESE 0.6 mph1.0 kmh 29.07 in984.4 mb 0.00 in0.0 mm 0.00 in0.0 mm 0.00 in0.0 mm
05:45 AM 55.1°F12.8°C 50.0°F10.0°C 83% 0.7 mph ESE1.1 kmh ESE 1.5 mph2.4 kmh 29.07 in984.4 mb 0.00 in0.0 mm 0.00 in0.0 mm 0.00 in0.0 mm
05:40 AM 55.2°F12.9°C 50.5°F10.3°C 84% 0.3 mph ESE0.5 kmh ESE 0.7 mph1.1 kmh 29.07 in984.4 mb 0.00 in0.0 mm 0.00 in0.0 mm 0.00 in0.0 mm
05:34 AM 54.9°F12.7°C 50.2°F10.1°C 84% 0.4 mph ESE0.6 kmh ESE 1.4 mph2.3 kmh 29.07 in984.4 mb 0.00 in0.0 mm 0.00 in0.0 mm 0.00 in0.0 mm
05:30 AM 54.8°F12.7°C 49.4°F9.7°C 82% 0.4 mph ESE0.6 kmh ESE 1.2 mph1.9 kmh 29.07 in984.4 mb 0.00 in0.0 mm 0.00 in0.0 mm 0.00 in0.0 mm
05:24 AM 55.0°F12.8°C 49.6°F9.8°C 82% Calm Calm -- 29.06 in984.1 mb 0.00 in0.0 mm 0.00 in0.0 mm 0.00 in0.0 mm
05:20 AM 55.2°F12.9°C 50.1°F10.1°C 83% Calm Calm -- 29.06 in984.1 mb 0.00 in0.0 mm 0.00 in0.0 mm 0.00 in0.0 mm
05:15 AM 55.3°F12.9°C 50.2°F10.1°C 83% Calm Calm -- 29.06 in984.1 mb 0.00 in0.0 mm 0.00 in0.0 mm 0.00 in0.0 mm
05:10 AM 55.6°F13.1°C 50.2°F10.1°C 82% 0.2 mph ESE0.3 kmh ESE 0.3 mph0.5 kmh 29.06 in984.1 mb 0.00 in0.0 mm 0.00 in0.0 mm 0.00 in0.0 mm
05:05 AM 55.7°F13.2°C 50.6°F10.3°C 83% 0.2 mph ESE0.3 kmh ESE 0.5 mph0.8 kmh 29.06 in984.1 mb 0.00 in0.0 mm 0.00 in0.0 mm 0.00 in0.0 mm
05:00 AM 55.7°F13.2°C 50.6°F10.3°C 83% 0.2 mph ESE0.3 kmh ESE 0.5 mph0.8 kmh 29.06 in984.1 mb 0.00 in0.0 mm 0.00 in0.0 mm 0.00 in0.0 mm
04:54 AM 55.8°F13.2°C 50.7°F10.4°C 83% Calm Calm -- 29.06 in984.1 mb 0.00 in0.0 mm 0.00 in0.0 mm 0.00 in0.0 mm
04:50 AM 56.0°F13.3°C 50.3°F10.2°C 81% Calm Calm -- 29.06 in984.1 mb 0.00 in0.0 mm 0.00 in0.0 mm 0.00 in0.0 mm
04:45 AM 56.2°F13.4°C 50.4°F10.2°C 81% Calm Calm -- 29.06 in984.1 mb 0.00 in0.0 mm 0.00 in0.0 mm 0.00 in0.0 mm
04:39 AM 56.4°F13.6°C 50.0°F10.0°C 79% Calm Calm -- 29.06 in984.1 mb 0.00 in0.0 mm 0.00 in0.0 mm 0.00 in0.0 mm
04:35 AM 56.8°F13.8°C 49.7°F9.8°C 77% Calm Calm -- 29.06 in984.1 mb 0.00 in0.0 mm 0.00 in0.0 mm 0.00 in0.0 mm
04:30 AM 57.2°F14.0°C 50.7°F10.4°C 79% 0.5 mph ESE0.8 kmh ESE 0.9 mph1.4 kmh 29.06 in984.1 mb 0.00 in0.0 mm 0.00 in0.0 mm 0.00 in0.0 mm
04:24 AM 57.2°F14.0°C 50.7°F10.4°C 79% 1.3 mph ESE2.1 kmh ESE 1.7 mph2.7 kmh 29.06 in984.1 mb 0.00 in0.0 mm 0.00 in0.0 mm 0.00 in0.0 mm
04:20 AM 57.2°F14.0°C 51.4°F10.8°C 81% Calm Calm 0.2 mph0.3 kmh 29.06 in984.1 mb 0.00 in0.0 mm 0.00 in0.0 mm 0.00 in0.0 mm
04:15 AM 57.2°F14.0°C 51.4°F10.8°C 81% 0.2 mph ESE0.3 kmh ESE 0.6 mph1.0 kmh 29.06 in984.1 mb 0.00 in0.0 mm 0.00 in0.0 mm 0.00 in0.0 mm
04:10 AM 57.2°F14.0°C 51.1°F10.6°C 80% 1.3 mph ESE2.1 kmh ESE 2.4 mph3.9 kmh 29.06 in984.1 mb 0.00 in0.0 mm 0.00 in0.0 mm 0.00 in0.0 mm
04:05 AM 57.5°F14.2°C 51.4°F10.8°C 80% Calm Calm -- 29.06 in984.1 mb 0.00 in0.0 mm 0.00 in0.0 mm 0.00 in0.0 mm
04:00 AM 57.5°F14.2°C 51.7°F10.9°C 81% 1.1 mph ESE1.8 kmh ESE 2.1 mph3.4 kmh 29.06 in984.1 mb 0.00 in0.0 mm 0.00 in0.0 mm 0.00 in0.0 mm
03:54 AM 57.2°F14.0°C 51.4°F10.8°C 81% 1.7 mph SE2.7 kmh SE 2.4 mph3.9 kmh 29.06 in984.1 mb 0.00 in0.0 mm 0.00 in0.0 mm 0.00 in0.0 mm
03:50 AM 57.3°F14.1°C 51.2°F10.7°C 80% 0.1 mph SE0.2 kmh SE 0.4 mph0.6 kmh 29.06 in984.1 mb 0.00 in0.0 mm 0.00 in0.0 mm 0.00 in0.0 mm
03:45 AM 57.6°F14.2°C 51.1°F10.6°C 79% Calm Calm -- 29.06 in984.1 mb 0.00 in0.0 mm 0.00 in0.0 mm 0.00 in0.0 mm
03:40 AM 57.7°F14.3°C 51.2°F10.7°C 79% 0.3 mph ESE0.5 kmh ESE 1.9 mph3.1 kmh 29.06 in984.1 mb 0.00 in0.0 mm 0.00 in0.0 mm 0.00 in0.0 mm
03:34 AM 57.7°F14.3°C 50.9°F10.5°C 78% 0.2 mph ESE0.3 kmh ESE 0.8 mph1.3 kmh 29.06 in984.1 mb 0.00 in0.0 mm 0.00 in0.0 mm 0.00 in0.0 mm
03:29 AM 57.8°F14.3°C 50.3°F10.2°C 76% 0.5 mph ESE0.8 kmh ESE 1.3 mph2.1 kmh 29.06 in984.1 mb 0.00 in0.0 mm 0.00 in0.0 mm 0.00 in0.0 mm
03:25 AM 57.8°F14.3°C 50.3°F10.2°C 76% 0.1 mph ENE0.2 kmh ENE 0.7 mph1.1 kmh 29.06 in984.1 mb 0.00 in0.0 mm 0.00 in0.0 mm 0.00 in0.0 mm
03:20 AM 57.8°F14.3°C 49.9°F9.9°C 75% 0.2 mph ENE0.3 kmh ENE 0.8 mph1.3 kmh 29.06 in984.1 mb 0.00 in0.0 mm 0.00 in0.0 mm 0.00 in0.0 mm
03:15 AM 57.8°F14.3°C 49.9°F9.9°C 75% Calm Calm -- 29.06 in984.1 mb 0.00 in0.0 mm 0.00 in0.0 mm 0.00 in0.0 mm
03:09 AM 58.0°F14.4°C 49.8°F9.9°C 74% Calm Calm -- 29.06 in984.1 mb 0.00 in0.0 mm 0.00 in0.0 mm 0.00 in0.0 mm
03:04 AM 58.2°F14.6°C 50.0°F10.0°C 74% Calm Calm -- 29.06 in984.1 mb 0.00 in0.0 mm 0.00 in0.0 mm 0.00 in0.0 mm
03:00 AM 58.5°F14.7°C 50.6°F10.3°C 75% 0.1 mph ENE0.2 kmh ENE 0.4 mph0.6 kmh 29.06 in984.1 mb 0.00 in0.0 mm 0.00 in0.0 mm 0.00 in0.0 mm
02:54 AM 58.7°F14.8°C 50.4°F10.2°C 74% Calm Calm -- 29.06 in984.1 mb 0.00 in0.0 mm 0.00 in0.0 mm 0.00 in0.0 mm
02:50 AM 59.0°F15.0°C 50.4°F10.2°C 73% Calm Calm -- 29.06 in984.1 mb 0.00 in0.0 mm 0.00 in0.0 mm 0.00 in0.0 mm
02:45 AM 59.1°F15.1°C 50.5°F10.3°C 73% Calm Calm -- 29.06 in984.1 mb 0.00 in0.0 mm 0.00 in0.0 mm 0.00 in0.0 mm
02:39 AM 59.2°F15.1°C 50.9°F10.5°C 74% 0.3 mph ENE0.5 kmh ENE 1.0 mph1.6 kmh 29.06 in984.1 mb 0.00 in0.0 mm 0.00 in0.0 mm 0.00 in0.0 mm
02:34 AM 59.1°F15.1°C 51.2°F10.7°C 75% 1.7 mph ENE2.7 kmh ENE 2.5 mph4.0 kmh 29.06 in984.1 mb 0.00 in0.0 mm 0.00 in0.0 mm 0.00 in0.0 mm
02:30 AM 58.8°F14.9°C 50.9°F10.5°C 75% 1.4 mph E2.3 kmh E 2.3 mph3.7 kmh 29.06 in984.1 mb 0.00 in0.0 mm 0.00 in0.0 mm 0.00 in0.0 mm
02:24 AM 58.8°F14.9°C 50.5°F10.3°C 74% Calm Calm -- 29.07 in984.4 mb 0.00 in0.0 mm 0.00 in0.0 mm 0.00 in0.0 mm
02:20 AM 59.0°F15.0°C 50.4°F10.2°C 73% Calm Calm -- 29.07 in984.4 mb 0.00 in0.0 mm 0.00 in0.0 mm 0.00 in0.0 mm
02:14 AM 59.1°F15.1°C 50.5°F10.3°C 73% Calm Calm -- 29.07 in984.4 mb 0.00 in0.0 mm 0.00 in0.0 mm 0.00 in0.0 mm
02:10 AM 59.3°F15.2°C 50.6°F10.3°C 73% 0.1 mph ENE0.2 kmh ENE 0.3 mph0.5 kmh 29.07 in984.4 mb 0.00 in0.0 mm 0.00 in0.0 mm 0.00 in0.0 mm
02:05 AM 59.6°F15.3°C 50.6°F10.3°C 72% 0.3 mph ENE0.5 kmh ENE 0.9 mph1.4 kmh 29.07 in984.4 mb 0.00 in0.0 mm 0.00 in0.0 mm 0.00 in0.0 mm
02:00 AM 60.0°F15.6°C 50.6°F10.3°C 71% 1.5 mph NE2.4 kmh NE 2.5 mph4.0 kmh 29.07 in984.4 mb 0.00 in0.0 mm 0.00 in0.0 mm 0.00 in0.0 mm
01:54 AM 60.2°F15.7°C 50.8°F10.4°C 71% 0.1 mph ENE0.2 kmh ENE 0.8 mph1.3 kmh 29.07 in984.4 mb 0.00 in0.0 mm 0.00 in0.0 mm 0.00 in0.0 mm
01:50 AM 60.3°F15.7°C 50.5°F10.3°C 70% 1.9 mph ENE3.1 kmh ENE 3.3 mph5.3 kmh 29.07 in984.4 mb 0.00 in0.0 mm 0.00 in0.0 mm 0.00 in0.0 mm
01:44 AM 60.7°F15.9°C 50.5°F10.3°C 69% 3.5 mph ENE5.6 kmh ENE 4.6 mph7.4 kmh 29.07 in984.4 mb 0.00 in0.0 mm 0.00 in0.0 mm 0.00 in0.0 mm
01:39 AM 60.6°F15.9°C 50.4°F10.2°C 69% 2.6 mph NE4.2 kmh NE 3.8 mph6.1 kmh 29.07 in984.4 mb 0.00 in0.0 mm 0.00 in0.0 mm 0.00 in0.0 mm
01:35 AM 60.4°F15.8°C 49.8°F9.9°C 68% 1.4 mph E2.3 kmh E 2.5 mph4.0 kmh 29.07 in984.4 mb 0.00 in0.0 mm 0.00 in0.0 mm 0.00 in0.0 mm
01:30 AM 60.3°F15.7°C 49.7°F9.8°C 68% Calm Calm -- 29.07 in984.4 mb 0.00 in0.0 mm 0.00 in0.0 mm 0.00 in0.0 mm
01:24 AM 60.6°F15.9°C 50.0°F10.0°C 68% 0.4 mph SSE0.6 kmh SSE 1.0 mph1.6 kmh 29.07 in984.4 mb 0.00 in0.0 mm 0.00 in0.0 mm 0.00 in0.0 mm
01:20 AM 60.7°F15.9°C 49.7°F9.8°C 67% Calm Calm -- 29.07 in984.4 mb 0.00 in0.0 mm 0.00 in0.0 mm 0.00 in0.0 mm
01:15 AM 61.0°F16.1°C 49.1°F9.5°C 65% Calm Calm -- 29.07 in984.4 mb 0.00 in0.0 mm 0.00 in0.0 mm 0.00 in0.0 mm
01:10 AM 61.2°F16.2°C 49.7°F9.8°C 66% 0.7 mph NE1.1 kmh NE 1.4 mph2.3 kmh 29.07 in984.4 mb 0.00 in0.0 mm 0.00 in0.0 mm 0.00 in0.0 mm
01:05 AM 61.5°F16.4°C 49.6°F9.8°C 65% 1.7 mph NE2.7 kmh NE 3.0 mph4.8 kmh 29.07 in984.4 mb 0.00 in0.0 mm 0.00 in0.0 mm 0.00 in0.0 mm
01:00 AM 61.6°F16.4°C 48.5°F9.2°C 62% 2.2 mph ENE3.5 kmh ENE 3.6 mph5.8 kmh 29.07 in984.4 mb 0.00 in0.0 mm 0.00 in0.0 mm 0.00 in0.0 mm
12:54 AM 61.3°F16.3°C 47.7°F8.7°C 61% 1.8 mph ENE2.9 kmh ENE 2.4 mph3.9 kmh 29.07 in984.4 mb 0.00 in0.0 mm 0.00 in0.0 mm 0.00 in0.0 mm
12:49 AM 61.2°F16.2°C 47.2°F8.4°C 60% 1.6 mph ENE2.6 kmh ENE 2.2 mph3.5 kmh 29.07 in984.4 mb 0.00 in0.0 mm 0.00 in0.0 mm 0.00 in0.0 mm
12:45 AM 61.3°F16.3°C 47.7°F8.7°C 61% 0.6 mph ENE1.0 kmh ENE 0.9 mph1.4 kmh 29.07 in984.4 mb 0.00 in0.0 mm 0.00 in0.0 mm 0.00 in0.0 mm
12:40 AM 61.6°F16.4°C 47.6°F8.7°C 60% 0.5 mph ENE0.8 kmh ENE 1.2 mph1.9 kmh 29.07 in984.4 mb 0.00 in0.0 mm 0.00 in0.0 mm 0.00 in0.0 mm
12:34 AM 61.9°F16.6°C 47.4°F8.6°C 59% 0.4 mph ENE0.6 kmh ENE 0.7 mph1.1 kmh 29.07 in984.4 mb 0.00 in0.0 mm 0.00 in0.0 mm 0.00 in0.0 mm
12:29 AM 62.2°F16.8°C 48.1°F8.9°C 60% 0.2 mph ENE0.3 kmh ENE 0.3 mph0.5 kmh 29.07 in984.4 mb 0.00 in0.0 mm 0.00 in0.0 mm 0.00 in0.0 mm
12:24 AM 62.5°F16.9°C 48.0°F8.9°C 59% 0.4 mph ENE0.6 kmh ENE 0.7 mph1.1 kmh 29.07 in984.4 mb 0.00 in0.0 mm 0.00 in0.0 mm 0.00 in0.0 mm
12:20 AM 62.9°F17.2°C 48.3°F9.1°C 59% Calm Calm -- 29.07 in984.4 mb 0.00 in0.0 mm 0.00 in0.0 mm 0.00 in0.0 mm
12:15 AM 63.3°F17.4°C 48.7°F9.3°C 59% Calm Calm -- 29.07 in984.4 mb 0.00 in0.0 mm 0.00 in0.0 mm 0.00 in0.0 mm
12:10 AM 63.6°F17.6°C 48.5°F9.2°C 58% 0.5 mph ENE0.8 kmh ENE 0.9 mph1.4 kmh 29.08 in984.8 mb 0.00 in0.0 mm 0.00 in0.0 mm 0.00 in0.0 mm
12:04 AM 63.7°F17.6°C 48.2°F9.0°C 57% 1.6 mph ENE2.6 kmh ENE 2.6 mph4.2 kmh 29.08 in984.8 mb 0.00 in0.0 mm 0.00 in0.0 mm 0.00 in0.0 mm